createdAt,value
2023-01-25T00:00:03.770Z,973.98
2023-01-25T00:01:03.558Z,973.96
2023-01-25T00:02:03.710Z,973.93
2023-01-25T00:04:03.626Z,973.95
2023-01-25T00:06:03.655Z,973.96
2023-01-25T00:07:03.771Z,973.94
2023-01-25T00:08:03.702Z,973.92
2023-01-25T00:09:03.690Z,973.91
2023-01-25T00:10:03.606Z,973.89
2023-01-25T00:11:03.581Z,973.88
2023-01-25T00:12:03.705Z,973.89
2023-01-25T00:13:03.676Z,973.85
2023-01-25T00:14:03.664Z,973.86
2023-01-25T00:15:03.637Z,973.87
2023-01-25T00:16:03.802Z,973.85
2023-01-25T00:17:03.742Z,973.88
2023-01-25T00:18:03.628Z,973.85
2023-01-25T00:19:03.704Z,973.84
2023-01-25T00:21:03.723Z,973.82
2023-01-25T00:22:03.773Z,973.83
2023-01-25T00:23:03.751Z,973.81
2023-01-25T00:24:03.678Z,973.8
2023-01-25T00:25:03.762Z,973.84
2023-01-25T00:26:03.675Z,973.83
2023-01-25T00:28:03.719Z,973.81
2023-01-25T00:29:03.676Z,973.83
2023-01-25T00:31:03.766Z,973.81
2023-01-25T00:34:03.813Z,973.83
2023-01-25T00:35:03.753Z,973.8
2023-01-25T00:36:03.739Z,973.82
2023-01-25T00:37:03.698Z,973.77
2023-01-25T00:38:03.697Z,973.76
2023-01-25T00:39:03.679Z,973.71
2023-01-25T00:40:03.736Z,973.72
2023-01-25T00:41:03.719Z,973.66
2023-01-25T00:42:03.745Z,973.71
2023-01-25T00:43:03.755Z,973.67
2023-01-25T00:44:03.690Z,973.71
2023-01-25T00:45:03.712Z,973.7
2023-01-25T00:46:03.790Z,973.66
2023-01-25T00:47:03.745Z,973.61
2023-01-25T00:48:03.738Z,973.53
2023-01-25T00:49:03.772Z,973.5
2023-01-25T00:50:03.754Z,973.47
2023-01-25T00:51:03.869Z,973.51
2023-01-25T00:52:03.724Z,973.48
2023-01-25T00:53:03.763Z,973.43
2023-01-25T00:54:03.789Z,973.45
2023-01-25T00:55:03.768Z,973.4
2023-01-25T00:57:03.860Z,973.38
2023-01-25T00:58:03.750Z,973.37
2023-01-25T00:59:03.764Z,973.39
2023-01-25T01:01:04.025Z,973.45
2023-01-25T01:02:03.779Z,973.46
2023-01-25T01:03:03.913Z,973.41
2023-01-25T01:05:03.766Z,973.44
2023-01-25T01:06:03.785Z,973.39
2023-01-25T01:07:03.747Z,973.48
2023-01-25T01:08:03.853Z,973.53
2023-01-25T01:09:03.802Z,973.59
2023-01-25T01:10:03.858Z,973.56
2023-01-25T01:11:03.888Z,973.55
2023-01-25T01:12:03.709Z,973.57
2023-01-25T01:13:03.782Z,973.54
2023-01-25T01:14:03.903Z,973.53
2023-01-25T01:15:03.851Z,973.52
2023-01-25T01:16:03.799Z,973.54
2023-01-25T01:17:03.812Z,973.56
2023-01-25T01:18:03.832Z,973.6
2023-01-25T01:20:03.771Z,973.62
2023-01-25T01:21:03.884Z,973.6
2023-01-25T01:22:03.795Z,973.58
2023-01-25T01:23:03.838Z,973.56
2023-01-25T01:25:05.258Z,973.52
2023-01-25T01:26:03.830Z,973.53
2023-01-25T01:28:03.813Z,973.59
2023-01-25T01:29:03.811Z,973.61
2023-01-25T01:30:03.803Z,973.59
2023-01-25T01:31:03.818Z,973.64
2023-01-25T01:32:03.908Z,973.65
2023-01-25T01:33:03.859Z,973.68
2023-01-25T01:34:03.802Z,973.66
2023-01-25T01:35:03.826Z,973.65
2023-01-25T01:36:03.868Z,973.66
2023-01-25T01:37:03.789Z,973.65
2023-01-25T01:38:03.896Z,973.61
2023-01-25T01:40:03.844Z,973.6
2023-01-25T01:42:04.071Z,973.61
2023-01-25T01:43:03.864Z,973.63
2023-01-25T01:44:03.897Z,973.64
2023-01-25T01:45:03.985Z,973.69
2023-01-25T01:46:04.023Z,973.66
2023-01-25T01:47:03.899Z,973.64
2023-01-25T01:49:04.032Z,973.58
2023-01-25T01:50:03.947Z,973.61
2023-01-25T01:51:03.876Z,973.56
2023-01-25T01:52:03.937Z,973.54
2023-01-25T01:53:03.934Z,973.52
2023-01-25T01:54:03.839Z,973.48
2023-01-25T01:55:03.861Z,973.53
2023-01-25T01:56:03.973Z,973.56
2023-01-25T01:57:04.060Z,973.57
2023-01-25T01:58:04.015Z,973.54
2023-01-25T01:59:03.905Z,973.45
2023-01-25T02:00:03.865Z,973.44
2023-01-25T02:01:04.117Z,973.47
2023-01-25T02:02:04.006Z,973.46
2023-01-25T02:03:03.850Z,973.44
2023-01-25T02:04:04.018Z,973.43
2023-01-25T02:05:03.964Z,973.45
2023-01-25T02:06:04.082Z,973.26
2023-01-25T02:07:04.039Z,973.4
2023-01-25T02:09:03.972Z,973.37
2023-01-25T02:11:04.029Z,973.38
2023-01-25T02:12:04.085Z,973.41
2023-01-25T02:14:03.981Z,973.38
2023-01-25T02:15:03.926Z,973.42
2023-01-25T02:16:04.048Z,973.41
2023-01-25T02:17:03.925Z,973.45
2023-01-25T02:18:03.914Z,973.42
2023-01-25T02:19:03.977Z,973.44
2023-01-25T02:20:04.035Z,973.45
2023-01-25T02:22:03.980Z,973.46
2023-01-25T02:24:04.128Z,973.47
2023-01-25T02:25:04.038Z,973.48
2023-01-25T02:26:04.068Z,973.46
2023-01-25T02:27:03.961Z,973.45
2023-01-25T02:28:04.029Z,973.42
2023-01-25T02:29:04.106Z,973.41
2023-01-25T02:30:03.956Z,973.44
2023-01-25T02:31:04.163Z,973.47
2023-01-25T02:32:03.991Z,973.46
2023-01-25T02:34:04.012Z,973.43
2023-01-25T02:35:03.991Z,973.44
2023-01-25T02:36:04.018Z,973.39
2023-01-25T02:37:04.070Z,973.36
2023-01-25T02:38:03.970Z,973.35
2023-01-25T02:39:04.079Z,973.32
2023-01-25T02:40:04.037Z,973.33
2023-01-25T02:41:04.126Z,973.31
2023-01-25T02:42:03.977Z,973.29
2023-01-25T02:43:04.103Z,973.33
2023-01-25T02:44:04.052Z,973.34
2023-01-25T02:45:03.888Z,973.33
2023-01-25T02:46:04.044Z,973.29
2023-01-25T02:48:04.027Z,973.21
2023-01-25T02:49:03.996Z,973.22
2023-01-25T02:50:03.918Z,973.21
2023-01-25T02:52:04.001Z,973.2
2023-01-25T02:53:04.079Z,973.19
2023-01-25T02:54:04.084Z,973.21
2023-01-25T02:55:03.938Z,973.18
2023-01-25T02:56:04.024Z,973.2
2023-01-25T02:57:04.010Z,973.19
2023-01-25T02:58:04.194Z,973.18
2023-01-25T02:59:04.107Z,973.16
2023-01-25T03:02:04.184Z,973.2
2023-01-25T03:03:04.059Z,973.21
2023-01-25T03:04:04.045Z,973.2
2023-01-25T03:05:04.050Z,973.18
2023-01-25T03:07:04.084Z,973.19
2023-01-25T03:08:04.099Z,973.18
2023-01-25T03:09:04.089Z,973.22
2023-01-25T03:10:04.107Z,973.18
2023-01-25T03:11:04.023Z,973.2
2023-01-25T03:13:04.111Z,973.18
2023-01-25T03:14:04.105Z,973.14
2023-01-25T03:15:04.029Z,973.13
2023-01-25T03:16:04.173Z,973.09
2023-01-25T03:17:04.178Z,973.11
2023-01-25T03:18:04.558Z,973.06
2023-01-25T03:19:04.148Z,973.05
2023-01-25T03:21:04.242Z,973.06
2023-01-25T03:22:04.234Z,973.01
2023-01-25T03:23:04.020Z,973.03
2023-01-25T03:24:04.267Z,973.02
2023-01-25T03:25:04.009Z,973.03
2023-01-25T03:26:04.056Z,973
2023-01-25T03:27:04.155Z,973.05
2023-01-25T03:28:04.141Z,973.04
2023-01-25T03:29:04.106Z,973.05
2023-01-25T03:30:04.079Z,973.03
2023-01-25T03:31:04.074Z,973.04
2023-01-25T03:32:04.232Z,973.03
2023-01-25T03:33:04.158Z,973.05
2023-01-25T03:34:04.183Z,973.02
2023-01-25T03:35:04.160Z,973
2023-01-25T03:36:04.288Z,972.98
2023-01-25T03:37:04.218Z,972.97
2023-01-25T03:38:04.221Z,972.94
2023-01-25T03:39:04.103Z,972.92
2023-01-25T03:40:04.121Z,972.89
2023-01-25T03:41:04.226Z,972.81
2023-01-25T03:42:04.174Z,972.86
2023-01-25T03:43:04.214Z,972.85
2023-01-25T03:44:04.105Z,972.78
2023-01-25T03:45:04.107Z,972.77
2023-01-25T03:46:04.170Z,972.74
2023-01-25T03:47:04.198Z,972.73
2023-01-25T03:48:04.107Z,972.74
2023-01-25T03:49:04.206Z,972.76
2023-01-25T03:50:04.161Z,972.66
2023-01-25T03:51:04.241Z,972.67
2023-01-25T03:53:04.270Z,972.72
2023-01-25T03:54:04.181Z,972.71
2023-01-25T03:55:04.128Z,972.73
2023-01-25T03:56:04.161Z,972.78
2023-01-25T03:57:04.135Z,972.75
2023-01-25T03:58:04.177Z,972.79
2023-01-25T03:59:04.223Z,972.77
2023-01-25T04:01:04.259Z,972.76
2023-01-25T04:02:04.305Z,972.74
2023-01-25T04:03:04.164Z,972.73
2023-01-25T04:04:04.200Z,972.7
2023-01-25T04:05:04.143Z,972.72
2023-01-25T04:06:04.245Z,972.69
2023-01-25T04:07:04.261Z,972.67
2023-01-25T04:08:04.277Z,972.65
2023-01-25T04:09:04.215Z,972.66
2023-01-25T04:10:04.228Z,972.67
2023-01-25T04:11:04.160Z,972.73
2023-01-25T04:12:04.097Z,972.7
2023-01-25T04:13:04.204Z,972.75
2023-01-25T04:14:04.391Z,972.74
2023-01-25T04:15:04.189Z,972.72
2023-01-25T04:16:04.275Z,972.71
2023-01-25T04:17:04.234Z,972.72
2023-01-25T04:18:04.307Z,972.7
2023-01-25T04:19:04.239Z,972.75
2023-01-25T04:20:05.500Z,972.76
2023-01-25T04:21:04.223Z,972.77
2023-01-25T04:23:04.359Z,972.73
2023-01-25T04:24:04.184Z,972.69
2023-01-25T04:25:04.258Z,972.73
2023-01-25T04:26:04.165Z,972.7
2023-01-25T04:28:04.268Z,972.68
2023-01-25T04:29:04.257Z,972.67
2023-01-25T04:31:04.224Z,972.65
2023-01-25T04:32:04.331Z,972.66
2023-01-25T04:33:04.258Z,972.63
2023-01-25T04:34:04.378Z,972.64
2023-01-25T04:35:04.222Z,972.63
2023-01-25T04:36:04.261Z,972.6
2023-01-25T04:38:04.272Z,972.56
2023-01-25T04:39:04.320Z,972.59
2023-01-25T04:40:04.228Z,972.58
2023-01-25T04:42:04.268Z,972.56
2023-01-25T04:43:04.180Z,972.57
2023-01-25T04:44:04.371Z,972.58
2023-01-25T04:45:04.323Z,972.55
2023-01-25T04:46:04.490Z,972.56
2023-01-25T04:47:04.305Z,972.54
2023-01-25T04:48:04.252Z,972.55
2023-01-25T04:49:04.238Z,972.58
2023-01-25T04:50:05.862Z,972.57
2023-01-25T04:51:04.254Z,972.55
2023-01-25T04:52:04.322Z,972.5
2023-01-25T04:53:04.241Z,972.52
2023-01-25T04:54:04.347Z,972.5
2023-01-25T04:57:04.369Z,972.51
2023-01-25T04:58:04.218Z,972.5
2023-01-25T04:59:04.369Z,972.52
2023-01-25T05:00:04.473Z,972.49
2023-01-25T05:01:04.457Z,972.47
2023-01-25T05:02:04.365Z,972.53
2023-01-25T05:03:04.299Z,972.5
2023-01-25T05:04:04.368Z,972.54
2023-01-25T05:05:04.251Z,972.5
2023-01-25T05:06:04.418Z,972.53
2023-01-25T05:07:04.245Z,972.56
2023-01-25T05:08:04.320Z,972.61
2023-01-25T05:09:04.474Z,972.6
2023-01-25T05:10:04.225Z,972.55
2023-01-25T05:11:04.331Z,972.57
2023-01-25T05:12:04.405Z,972.52
2023-01-25T05:13:04.355Z,972.51
2023-01-25T05:15:04.395Z,972.5
2023-01-25T05:16:04.293Z,972.48
2023-01-25T05:17:04.417Z,972.49
2023-01-25T05:18:05.280Z,972.46
2023-01-25T05:19:04.402Z,972.45
2023-01-25T05:20:04.360Z,972.43
2023-01-25T05:21:05.343Z,972.41
2023-01-25T05:24:04.487Z,972.43
2023-01-25T05:27:04.478Z,972.39
2023-01-25T05:28:04.399Z,972.46
2023-01-25T05:29:04.392Z,972.4
2023-01-25T05:30:04.426Z,972.48
2023-01-25T05:31:04.345Z,972.46
2023-01-25T05:32:04.515Z,972.45
2023-01-25T05:33:04.526Z,972.46
2023-01-25T05:34:04.429Z,972.41
2023-01-25T05:35:04.368Z,972.39
2023-01-25T05:36:04.384Z,972.3
2023-01-25T05:37:04.384Z,972.39
2023-01-25T05:39:04.526Z,972.44
2023-01-25T05:40:04.402Z,972.36
2023-01-25T05:41:04.508Z,972.41
2023-01-25T05:42:04.346Z,972.49
2023-01-25T05:43:04.486Z,972.51
2023-01-25T05:44:04.555Z,972.49
2023-01-25T05:45:04.413Z,972.48
2023-01-25T05:46:04.563Z,972.42
2023-01-25T05:47:04.546Z,972.44
2023-01-25T05:49:04.433Z,972.46
2023-01-25T05:50:04.405Z,972.42
2023-01-25T05:51:04.548Z,972.46
2023-01-25T05:53:04.409Z,972.44
2023-01-25T05:54:04.486Z,972.46
2023-01-25T05:55:04.328Z,972.42
2023-01-25T05:56:04.431Z,972.41
2023-01-25T05:57:04.559Z,972.42
2023-01-25T06:00:04.523Z,972.45
2023-01-25T06:01:04.533Z,972.4
2023-01-25T06:02:04.602Z,972.41
2023-01-25T06:03:04.520Z,972.38
2023-01-25T06:05:04.436Z,972.4
2023-01-25T06:06:04.488Z,972.39
2023-01-25T06:08:04.426Z,972.4
2023-01-25T06:09:04.446Z,972.39
2023-01-25T06:11:04.592Z,972.38
2023-01-25T06:12:04.430Z,972.4
2023-01-25T06:13:04.530Z,972.39
2023-01-25T06:14:04.476Z,972.41
2023-01-25T06:15:04.432Z,972.38
2023-01-25T06:16:04.491Z,972.39
2023-01-25T06:17:04.460Z,972.38
2023-01-25T06:18:04.540Z,972.39
2023-01-25T06:19:04.493Z,972.43
2023-01-25T06:20:04.580Z,972.4
2023-01-25T06:21:04.452Z,972.39
2023-01-25T06:22:04.474Z,972.41
2023-01-25T06:23:04.560Z,972.4
2023-01-25T06:25:04.489Z,972.42
2023-01-25T06:26:04.607Z,972.37
2023-01-25T06:27:04.521Z,972.42
2023-01-25T06:28:04.540Z,972.41
2023-01-25T06:29:04.506Z,972.42
2023-01-25T06:30:04.567Z,972.43
2023-01-25T06:31:04.695Z,972.42
2023-01-25T06:35:04.570Z,972.38
2023-01-25T06:36:04.532Z,972.41
2023-01-25T06:37:04.555Z,972.36
2023-01-25T06:38:04.500Z,972.38
2023-01-25T06:39:04.525Z,972.37
2023-01-25T06:40:04.437Z,972.33
2023-01-25T06:41:04.612Z,972.36
2023-01-25T06:42:04.620Z,972.31
2023-01-25T06:43:04.633Z,972.32
2023-01-25T06:44:04.749Z,972.31
2023-01-25T06:45:04.490Z,972.34
2023-01-25T06:46:04.498Z,972.33
2023-01-25T06:47:04.620Z,972.34
2023-01-25T06:48:04.602Z,972.31
2023-01-25T06:49:04.542Z,972.32
2023-01-25T06:50:04.638Z,972.34
2023-01-25T06:52:04.612Z,972.35
2023-01-25T06:53:04.615Z,972.34
2023-01-25T06:54:04.636Z,972.31
2023-01-25T06:55:04.623Z,972.28
2023-01-25T06:56:04.587Z,972.27
2023-01-25T06:58:04.715Z,972.26
2023-01-25T07:03:04.666Z,972.28
2023-01-25T07:04:04.623Z,972.25
2023-01-25T07:05:04.618Z,972.26
2023-01-25T07:06:04.676Z,972.22
2023-01-25T07:07:04.712Z,972.21
2023-01-25T07:08:04.652Z,972.22
2023-01-25T07:11:04.703Z,972.18
2023-01-25T07:12:04.718Z,972.19
2023-01-25T07:13:04.614Z,972.16
2023-01-25T07:14:04.610Z,972.15
2023-01-25T07:15:04.541Z,972.2
2023-01-25T07:16:04.717Z,972.24
2023-01-25T07:17:04.736Z,972.19
2023-01-25T07:18:15.609Z,972.2
2023-01-25T07:19:04.669Z,972.23
2023-01-25T07:20:04.721Z,972.25
2023-01-25T07:21:04.699Z,972.23
2023-01-25T07:22:04.655Z,972.27
2023-01-25T07:23:04.591Z,972.23
2023-01-25T07:24:04.811Z,972.24
2023-01-25T07:25:04.712Z,972.18
2023-01-25T07:26:04.738Z,972.16
2023-01-25T07:27:04.688Z,972.19
2023-01-25T07:28:04.715Z,972.16
2023-01-25T07:29:04.784Z,972.15
2023-01-25T07:30:04.698Z,972.19
2023-01-25T07:31:04.699Z,972.18
2023-01-25T07:32:04.645Z,972.19
2023-01-25T07:33:04.751Z,972.16
2023-01-25T07:34:04.686Z,972.2
2023-01-25T07:35:04.752Z,972.17
2023-01-25T07:36:04.776Z,972.23
2023-01-25T07:37:04.737Z,972.21
2023-01-25T07:38:04.673Z,972.23
2023-01-25T07:39:04.747Z,972.2
2023-01-25T07:40:04.673Z,972.24
2023-01-25T07:41:04.721Z,972.18
2023-01-25T07:42:04.729Z,972.22
2023-01-25T07:43:04.644Z,972.21
2023-01-25T07:44:04.724Z,972.2
2023-01-25T07:45:04.729Z,972.21
2023-01-25T07:46:04.685Z,972.16
2023-01-25T07:47:04.722Z,972.19
2023-01-25T07:48:04.739Z,972.21
2023-01-25T07:49:04.850Z,972.2
2023-01-25T07:50:04.758Z,972.19
2023-01-25T07:51:04.750Z,972.22
2023-01-25T07:52:04.820Z,972.2
2023-01-25T07:53:04.740Z,972.22
2023-01-25T07:55:04.817Z,972.24
2023-01-25T07:56:04.815Z,972.22
2023-01-25T07:57:04.757Z,972.23
2023-01-25T07:58:04.747Z,972.21
2023-01-25T07:59:04.711Z,972.24
2023-01-25T08:00:04.754Z,972.21
2023-01-25T08:01:04.674Z,972.19
2023-01-25T08:02:04.667Z,972.21
2023-01-25T08:03:04.908Z,972.2
2023-01-25T08:04:04.726Z,972.19
2023-01-25T08:05:04.820Z,972.21
2023-01-25T08:06:04.769Z,972.14
2023-01-25T08:07:04.677Z,972.16
2023-01-25T08:08:04.825Z,972.17
2023-01-25T08:09:04.759Z,972.2
2023-01-25T08:10:04.821Z,972.17
2023-01-25T08:11:04.809Z,972.2
2023-01-25T08:12:05.883Z,972.16
2023-01-25T08:13:09.177Z,972.12
2023-01-25T08:14:04.902Z,972.13
2023-01-25T08:15:04.759Z,972.1
2023-01-25T08:16:04.826Z,972.09
2023-01-25T08:19:04.743Z,972.08
2023-01-25T08:21:04.813Z,972.11
2023-01-25T08:22:04.742Z,972.09
2023-01-25T08:24:04.733Z,972.12
2023-01-25T08:25:04.843Z,972.09
2023-01-25T08:26:04.817Z,972.11
2023-01-25T08:27:04.891Z,972.09
2023-01-25T08:28:04.719Z,972.06
2023-01-25T08:31:04.745Z,972.07
2023-01-25T08:32:04.857Z,972.08
2023-01-25T08:33:04.885Z,972.09
2023-01-25T08:34:04.851Z,972.07
2023-01-25T08:36:04.899Z,972.05
2023-01-25T08:37:04.909Z,972.06
2023-01-25T08:38:04.757Z,972.09
2023-01-25T08:39:04.906Z,972.05
2023-01-25T08:41:04.769Z,972.06
2023-01-25T08:42:05.039Z,972.04
2023-01-25T08:43:04.882Z,972.05
2023-01-25T08:45:04.812Z,972.06
2023-01-25T08:46:04.883Z,972.01
2023-01-25T08:47:04.800Z,972.03
2023-01-25T08:48:04.807Z,972
2023-01-25T08:49:04.830Z,972.01
2023-01-25T08:50:04.838Z,971.97
2023-01-25T08:51:04.922Z,971.96
2023-01-25T08:52:04.927Z,971.95
2023-01-25T08:54:04.801Z,971.91
2023-01-25T08:55:04.860Z,971.89
2023-01-25T08:56:04.933Z,971.86
2023-01-25T08:57:04.955Z,971.87
2023-01-25T08:59:04.832Z,971.84
2023-01-25T09:02:04.848Z,971.83
2023-01-25T09:03:04.961Z,971.81
2023-01-25T09:04:04.885Z,971.8
2023-01-25T09:06:04.848Z,971.76
2023-01-25T09:08:05.895Z,971.77
2023-01-25T09:09:04.888Z,971.75
2023-01-25T09:11:04.989Z,971.76
2023-01-25T09:12:04.961Z,971.75
2023-01-25T09:13:07.000Z,971.68
2023-01-25T09:14:04.991Z,971.69
2023-01-25T09:15:04.835Z,971.7
2023-01-25T09:16:04.968Z,971.67
2023-01-25T09:17:04.867Z,971.63
2023-01-25T09:18:04.956Z,971.62
2023-01-25T09:19:04.960Z,971.66
2023-01-25T09:20:04.972Z,971.62
2023-01-25T09:21:04.852Z,971.61
2023-01-25T09:22:04.915Z,971.6
2023-01-25T09:23:05.027Z,971.54
2023-01-25T09:24:07.374Z,971.57
2023-01-25T09:25:04.839Z,971.56
2023-01-25T09:26:06.080Z,971.59
2023-01-25T09:27:04.898Z,971.56
2023-01-25T09:29:04.937Z,971.54
2023-01-25T09:30:08.589Z,971.55
2023-01-25T09:33:05.066Z,971.6
2023-01-25T09:35:04.895Z,971.57
2023-01-25T09:36:04.891Z,971.6
2023-01-25T09:37:04.887Z,971.58
2023-01-25T09:38:04.899Z,971.59
2023-01-25T09:40:04.928Z,971.57
2023-01-25T09:41:04.998Z,971.56
2023-01-25T09:42:13.498Z,971.57
2023-01-25T09:43:06.221Z,971.54
2023-01-25T09:44:14.504Z,971.55
2023-01-25T09:45:04.898Z,971.53
2023-01-25T09:46:04.959Z,971.56
2023-01-25T09:47:05.028Z,971.58
2023-01-25T09:48:05.003Z,971.54
2023-01-25T09:50:05.059Z,971.56
2023-01-25T09:51:04.916Z,971.49
2023-01-25T09:53:05.037Z,971.46
2023-01-25T09:54:05.001Z,971.43
2023-01-25T09:55:04.940Z,971.44
2023-01-25T09:57:04.990Z,971.45
2023-01-25T09:58:05.108Z,971.42
2023-01-25T09:59:04.920Z,971.39
2023-01-25T10:00:05.614Z,971.38
2023-01-25T10:02:05.105Z,971.37
2023-01-25T10:03:05.077Z,971.39
2023-01-25T10:04:04.977Z,971.35
2023-01-25T10:06:05.061Z,971.34
2023-01-25T10:07:05.096Z,971.36
2023-01-25T10:08:05.071Z,971.38
2023-01-25T10:09:04.964Z,971.4
2023-01-25T10:10:04.964Z,971.42
2023-01-25T10:11:05.073Z,971.35
2023-01-25T10:12:04.961Z,971.33
2023-01-25T10:13:05.024Z,971.34
2023-01-25T10:14:05.064Z,971.35
2023-01-25T10:15:05.135Z,971.34
2023-01-25T10:16:06.437Z,971.32
2023-01-25T10:17:05.128Z,971.34
2023-01-25T10:19:05.101Z,971.3
2023-01-25T10:20:04.978Z,971.31
2023-01-25T10:21:05.009Z,971.32
2023-01-25T10:23:05.139Z,971.34
2023-01-25T10:24:05.223Z,971.3
2023-01-25T10:25:05.106Z,971.26
2023-01-25T10:26:05.005Z,971.28
2023-01-25T10:27:05.012Z,971.29
2023-01-25T10:28:05.107Z,971.28
2023-01-25T10:30:05.171Z,971.27
2023-01-25T10:31:05.242Z,971.23
2023-01-25T10:32:05.073Z,971.21
2023-01-25T10:33:05.200Z,971.25
2023-01-25T10:34:05.124Z,971.21
2023-01-25T10:35:05.079Z,971.19
2023-01-25T10:36:05.291Z,971.16
2023-01-25T10:37:05.151Z,971.17
2023-01-25T10:38:05.149Z,971.19
2023-01-25T10:40:05.493Z,971.17
2023-01-25T10:41:05.040Z,971.11
2023-01-25T10:42:05.177Z,971.16
2023-01-25T10:43:05.177Z,971.15
2023-01-25T10:45:05.158Z,971.16
2023-01-25T10:46:05.170Z,971.19
2023-01-25T10:47:05.115Z,971.2
2023-01-25T10:48:05.126Z,971.21
2023-01-25T10:49:05.084Z,971.19
2023-01-25T10:51:05.093Z,971.23
2023-01-25T10:52:05.219Z,971.17
2023-01-25T10:53:05.196Z,971.15
2023-01-25T10:54:05.215Z,971.14
2023-01-25T10:55:05.137Z,971.13
2023-01-25T10:56:05.280Z,971.12
2023-01-25T10:57:05.188Z,971.1
2023-01-25T10:58:05.218Z,971.08
2023-01-25T10:59:05.147Z,971.06
2023-01-25T11:00:05.171Z,971.03
2023-01-25T11:02:05.089Z,971.02
2023-01-25T11:03:05.183Z,971.04
2023-01-25T11:04:05.168Z,971
2023-01-25T11:06:05.335Z,970.98
2023-01-25T11:08:05.282Z,970.94
2023-01-25T11:09:05.241Z,970.89
2023-01-25T11:10:05.157Z,970.9
2023-01-25T11:12:05.135Z,970.83
2023-01-25T11:13:05.248Z,970.88
2023-01-25T11:14:05.113Z,970.89
2023-01-25T11:15:05.214Z,970.88
2023-01-25T11:16:05.374Z,970.86
2023-01-25T11:17:05.289Z,970.82
2023-01-25T11:19:05.323Z,970.77
2023-01-25T11:20:05.287Z,970.83
2023-01-25T11:21:05.145Z,970.81
2023-01-25T11:23:05.127Z,970.85
2023-01-25T11:24:05.385Z,970.8
2023-01-25T11:25:05.138Z,970.81
2023-01-25T11:26:05.301Z,970.83
2023-01-25T11:27:05.276Z,970.81
2023-01-25T11:29:05.343Z,970.73
2023-01-25T11:30:05.229Z,970.74
2023-01-25T11:31:05.296Z,970.76
2023-01-25T11:32:05.186Z,970.72
2023-01-25T11:33:05.267Z,970.69
2023-01-25T11:34:05.234Z,970.68
2023-01-25T11:35:05.292Z,970.65
2023-01-25T11:36:05.236Z,970.67
2023-01-25T11:37:05.184Z,970.66
2023-01-25T11:38:05.159Z,970.63
2023-01-25T11:39:05.163Z,970.68
2023-01-25T11:40:05.196Z,970.65
2023-01-25T11:41:05.296Z,970.61
2023-01-25T11:44:05.322Z,970.57
2023-01-25T11:46:05.412Z,970.55
2023-01-25T11:47:05.383Z,970.56
2023-01-25T11:48:05.256Z,970.54
2023-01-25T11:49:05.207Z,970.53
2023-01-25T11:50:05.293Z,970.5
2023-01-25T11:51:05.304Z,970.51
2023-01-25T11:52:05.216Z,970.48
2023-01-25T11:53:05.286Z,970.46
2023-01-25T11:54:06.246Z,970.42
2023-01-25T11:55:05.243Z,970.39
2023-01-25T11:56:05.304Z,970.4
2023-01-25T11:58:05.382Z,970.36
2023-01-25T11:59:05.330Z,970.34
2023-01-25T12:00:05.472Z,970.35
2023-01-25T12:01:05.228Z,970.34
2023-01-25T12:02:05.301Z,970.31
2023-01-25T12:03:05.420Z,970.3
2023-01-25T12:05:09.617Z,970.28
2023-01-25T12:06:05.485Z,970.27
2023-01-25T12:07:05.402Z,970.23
2023-01-25T12:08:05.373Z,970.25
2023-01-25T12:09:05.205Z,970.24
2023-01-25T12:10:05.189Z,970.2
2023-01-25T12:11:05.252Z,970.18
2023-01-25T12:12:05.331Z,970.2
2023-01-25T12:13:05.296Z,970.14
2023-01-25T12:15:07.371Z,970.13
2023-01-25T12:17:05.349Z,970.08
2023-01-25T12:18:05.320Z,970.05
2023-01-25T12:19:05.339Z,970.04
2023-01-25T12:20:05.264Z,970.07
2023-01-25T12:21:07.208Z,970.04
2023-01-25T12:22:05.315Z,970.05
2023-01-25T12:24:05.323Z,970
2023-01-25T12:25:05.418Z,970.03
2023-01-25T12:26:05.506Z,970.01
2023-01-25T12:27:05.302Z,969.94
2023-01-25T12:30:05.309Z,969.92
2023-01-25T12:31:05.452Z,969.91
2023-01-25T12:32:05.472Z,969.9
2023-01-25T12:33:14.148Z,969.92
2023-01-25T12:34:05.594Z,969.9
2023-01-25T12:35:05.488Z,969.88
2023-01-25T12:38:05.514Z,969.89
2023-01-25T12:39:05.447Z,969.87
2023-01-25T12:40:05.431Z,969.85
2023-01-25T12:41:05.504Z,969.79
2023-01-25T12:42:05.431Z,969.81
2023-01-25T12:44:05.513Z,969.77
2023-01-25T12:45:05.421Z,969.74
2023-01-25T12:46:05.417Z,969.78
2023-01-25T12:47:05.476Z,969.7
2023-01-25T12:48:05.421Z,969.72
2023-01-25T12:49:05.367Z,969.69
2023-01-25T12:50:05.349Z,969.63
2023-01-25T12:52:05.401Z,969.6
2023-01-25T12:53:05.485Z,969.61
2023-01-25T12:54:05.470Z,969.59
2023-01-25T12:55:05.437Z,969.61
2023-01-25T12:56:05.491Z,969.6
2023-01-25T12:57:05.480Z,969.59
2023-01-25T12:58:06.516Z,969.6
2023-01-25T13:02:05.569Z,969.58
2023-01-25T13:03:05.395Z,969.54
2023-01-25T13:04:05.586Z,969.55
2023-01-25T13:05:05.540Z,969.5
2023-01-25T13:07:05.567Z,969.46
2023-01-25T13:08:05.537Z,969.48
2023-01-25T13:09:05.486Z,969.54
2023-01-25T13:10:05.413Z,969.53
2023-01-25T13:11:05.463Z,969.54
2023-01-25T13:12:05.413Z,969.55
2023-01-25T13:13:05.638Z,969.51
2023-01-25T13:15:05.513Z,969.53
2023-01-25T13:16:05.469Z,969.52
2023-01-25T13:17:10.243Z,969.48
2023-01-25T13:18:05.899Z,969.5
2023-01-25T13:19:05.428Z,969.52
2023-01-25T13:20:06.607Z,969.51
2023-01-25T13:21:05.922Z,969.5
2023-01-25T13:22:05.561Z,969.45
2023-01-25T13:24:05.572Z,969.43
2023-01-25T13:26:05.455Z,969.37
2023-01-25T13:27:05.580Z,969.34
2023-01-25T13:28:05.418Z,969.33
2023-01-25T13:29:05.478Z,969.31
2023-01-25T13:31:05.621Z,969.24
2023-01-25T13:32:05.667Z,969.26
2023-01-25T13:33:05.506Z,969.25
2023-01-25T13:34:05.513Z,969.22
2023-01-25T13:35:05.551Z,969.21
2023-01-25T13:36:05.577Z,969.17
2023-01-25T13:37:05.525Z,969.18
2023-01-25T13:38:05.555Z,969.15
2023-01-25T13:39:05.642Z,969.16
2023-01-25T13:40:06.179Z,969.2
2023-01-25T13:41:05.551Z,969.14
2023-01-25T13:42:05.528Z,969.18
2023-01-25T13:43:05.582Z,969.22
2023-01-25T13:44:05.581Z,969.19
2023-01-25T13:45:05.497Z,969.21
2023-01-25T13:47:05.523Z,969.18
2023-01-25T13:49:05.618Z,969.19
2023-01-25T13:50:05.583Z,969.17
2023-01-25T13:51:05.643Z,969.18
2023-01-25T13:52:05.593Z,969.21
2023-01-25T13:53:05.562Z,969.18
2023-01-25T13:54:05.533Z,969.2
2023-01-25T13:55:05.620Z,969.18
2023-01-25T13:56:05.649Z,969.19
2023-01-25T13:57:05.562Z,969.18
2023-01-25T13:58:05.817Z,969.16
2023-01-25T13:59:05.552Z,969.15
2023-01-25T14:02:05.756Z,969.16
2023-01-25T14:03:05.695Z,969.15
2023-01-25T14:04:05.538Z,969.19
2023-01-25T14:05:07.688Z,969.17
2023-01-25T14:06:05.545Z,969.2
2023-01-25T14:07:05.532Z,969.21
2023-01-25T14:09:05.535Z,969.19
2023-01-25T14:10:05.515Z,969.2
2023-01-25T14:11:05.696Z,969.23
2023-01-25T14:12:05.685Z,969.19
2023-01-25T14:13:05.593Z,969.17
2023-01-25T14:14:05.677Z,969.16
2023-01-25T14:16:05.654Z,969.13
2023-01-25T14:18:05.687Z,969.09
2023-01-25T14:19:05.735Z,969.05
2023-01-25T14:20:05.617Z,969.02
2023-01-25T14:22:05.678Z,969.03
2023-01-25T14:23:05.748Z,969.02
2023-01-25T14:24:05.763Z,969.03
2023-01-25T14:25:05.657Z,969.02
2023-01-25T14:27:05.737Z,968.97
2023-01-25T14:28:05.713Z,969.02
2023-01-25T14:29:07.048Z,968.99
2023-01-25T14:30:05.763Z,968.97
2023-01-25T14:31:05.669Z,968.94
2023-01-25T14:32:05.657Z,968.96
2023-01-25T14:33:05.668Z,968.98
2023-01-25T14:35:05.643Z,969.02
2023-01-25T14:36:16.051Z,969.01
2023-01-25T14:37:05.842Z,968.97
2023-01-25T14:38:05.615Z,968.93
2023-01-25T14:39:05.604Z,968.95
2023-01-25T14:40:05.639Z,968.93
2023-01-25T14:41:05.750Z,968.96
2023-01-25T14:42:05.787Z,968.95
2023-01-25T14:43:05.725Z,968.92
2023-01-25T14:44:05.747Z,968.94
2023-01-25T14:45:05.600Z,968.89
2023-01-25T14:46:05.632Z,968.88